Time;durP1;ratioP1;P1;durP2;ratioP2;P2;SDS_P1;SDS_P2;PMS_P1;PMS_P2;Temp;Humidity;BMP_temperature;BMP_pressure;BME280_temperature;BME280_humidity;BME280_pressure;Samples;Min_cycle;Max_cycle;Signal;HPM_P1;HPM_P2
2022/10/14 00:01:35;;;;;;;0.00;0.00;;;;;;;;;;5094758;28;20020;-71
2022/10/14 00:04:02;;;;;;;0.00;0.00;;;;;;;;;;5103205;28;20020;-71
2022/10/14 00:06:32;;;;;;;0.00;0.00;;;;;;;;;;5114694;28;20032;-71
2022/10/14 00:09:04;;;;;;;0.00;0.00;;;;;;;;;;5088111;28;20024;-71
2022/10/14 00:11:32;;;;;;;1.38;1.00;;;;;;;;;;5079055;28;20035;-71
2022/10/14 00:14:01;;;;;;;0.00;0.00;;;;;;;;;;5094112;28;20032;-71
2022/10/14 00:16:33;;;;;;;0.00;0.00;;;;;;;;;;5092616;28;20050;-71
2022/10/14 00:19:00;;;;;;;0.10;0.10;;;;;;;;;;5099220;27;20170;-71
2022/10/14 00:21:27;;;;;;;0.35;0.35;;;;;;;;;;5102816;28;20031;-71
2022/10/14 00:23:53;;;;;;;0.00;0.00;;;;;;;;;;5099100;27;20027;-70
2022/10/14 00:26:40;;;;;;;0.00;0.00;;;;;;;;;;5106859;28;20135;-70
2022/10/14 00:29:08;;;;;;;0.00;0.00;;;;;;;;;;5105763;28;20092;-70
2022/10/14 00:31:34;;;;;;;0.00;0.00;;;;;;;;;;5076471;28;20031;-71
2022/10/14 00:34:01;;;;;;;0.00;0.00;;;;;;;;;;5111225;28;20028;-71
2022/10/14 00:36:27;;;;;;;0.00;0.00;;;;;;;;;;5097587;28;20524;-71
2022/10/14 00:38:54;;;;;;;0.00;0.00;;;;;;;;;;5108424;27;20081;-71
2022/10/14 00:41:22;;;;;;;0.05;0.05;;;;;;;;;;5089737;28;20045;-71
2022/10/14 00:43:51;;;;;;;0.00;0.00;;;;;;;;;;5079809;28;20025;-72
2022/10/14 00:46:17;;;;;;;0.00;0.00;;;;;;;;;;5062601;28;20036;-71
2022/10/14 00:48:44;;;;;;;0.00;0.00;;;;;;;;;;5080551;28;20020;-72
2022/10/14 00:51:10;;;;;;;0.00;0.00;;;;;;;;;;5084519;28;20048;-71
2022/10/14 00:53:38;;;;;;;0.00;0.00;;;;;;;;;;5074214;28;20028;-71
2022/10/14 00:56:07;;;;;;;0.00;0.00;;;;;;;;;;5073443;28;20106;-71
2022/10/14 00:58:33;;;;;;;0.00;0.00;;;;;;;;;;5057755;28;20034;-71
2022/10/14 01:01:00;;;;;;;0.00;0.00;;;;;;;;;;5067032;28;20548;-70
2022/10/14 01:03:26;;;;;;;0.70;0.70;;;;;;;;;;5074128;28;20123;-72
2022/10/14 01:06:09;;;;;;;0.00;0.00;;;;;;;;;;5064807;28;20094;-71
2022/10/14 01:08:53;;;;;;;0.00;0.00;;;;;;;;;;5079488;28;20494;-73
2022/10/14 01:11:25;;;;;;;0.00;0.00;;;;;;;;;;5077103;28;21707;-74
2022/10/14 01:13:59;;;;;;;0.00;0.00;;;;;;;;;;5075320;28;20424;-73
2022/10/14 01:16:35;;;;;;;0.10;0.10;;;;;;;;;;5080997;28;20035;-73
2022/10/14 01:19:13;;;;;;;0.00;0.00;;;;;;;;;;5083061;28;20462;-73
2022/10/14 01:21:44;;;;;;;0.00;0.00;;;;;;;;;;5062471;28;20040;-72
2022/10/14 01:24:29;;;;;;;0.45;0.45;;;;;;;;;;5076461;28;20094;-72
2022/10/14 01:27:14;;;;;;;0.00;0.00;;;;;;;;;;5074857;28;20051;-72
2022/10/14 01:29:51;;;;;;;0.00;0.00;;;;;;;;;;5072602;28;20409;-72
2022/10/14 01:32:29;;;;;;;0.00;0.00;;;;;;;;;;5089183;28;20028;-72
2022/10/14 01:34:58;;;;;;;0.00;0.00;;;;;;;;;;5065265;28;20154;-72
2022/10/14 01:37:28;;;;;;;0.00;0.00;;;;;;;;;;5066510;28;20032;-72
2022/10/14 01:39:57;;;;;;;0.00;0.00;;;;;;;;;;5084753;28;20029;-71
2022/10/14 01:42:26;;;;;;;0.00;0.00;;;;;;;;;;5100511;28;20457;-71
2022/10/14 01:44:56;;;;;;;15.55;2.72;;;;;;;;;;5103155;28;20127;-72
2022/10/14 01:47:24;;;;;;;0.00;0.00;;;;;;;;;;5107589;28;20359;-73
2022/10/14 01:49:56;;;;;;;6.03;5.47;;;;;;;;;;5089550;28;20027;-72
2022/10/14 01:52:26;;;;;;;0.00;0.00;;;;;;;;;;5095214;28;20474;-71
2022/10/14 01:54:54;;;;;;;0.00;0.00;;;;;;;;;;5112033;27;20024;-72
2022/10/14 01:57:23;;;;;;;0.00;0.00;;;;;;;;;;5107646;27;20028;-72
2022/10/14 01:59:51;;;;;;;0.00;0.00;;;;;;;;;;5107785;28;20027;-71
2022/10/14 02:02:18;;;;;;;0.13;0.13;;;;;;;;;;5105751;27;20379;-72
2022/10/14 02:04:44;;;;;;;0.00;0.00;;;;;;;;;;5105083;27;20016;-71
2022/10/14 02:07:18;;;;;;;0.00;0.00;;;;;;;;;;5097313;28;20126;-71
2022/10/14 02:10:08;;;;;;;0.00;0.00;;;;;;;;;;5088423;27;20115;-71
2022/10/14 02:12:44;;;;;;;0.00;0.00;;;;;;;;;;5106137;28;20026;-72
2022/10/14 02:15:10;;;;;;;0.00;0.00;;;;;;;;;;5082787;28;20031;-73
2022/10/14 02:17:37;;;;;;;0.80;0.80;;;;;;;;;;5106651;27;20035;-73
2022/10/14 02:20:22;;;;;;;0.00;0.00;;;;;;;;;;5097753;28;20021;-72
2022/10/14 02:22:51;;;;;;;0.60;0.60;;;;;;;;;;5112089;28;20027;-72
2022/10/14 02:25:19;;;;;;;0.00;0.00;;;;;;;;;;5105386;27;20019;-72
2022/10/14 02:27:46;;;;;;;0.00;0.00;;;;;;;;;;5108736;27;20024;-72
2022/10/14 02:30:13;;;;;;;0.03;0.03;;;;;;;;;;5096958;28;20023;-73
2022/10/14 02:32:40;;;;;;;0.00;0.00;;;;;;;;;;5110489;28;20024;-73
2022/10/14 02:35:08;;;;;;;0.00;0.00;;;;;;;;;;5112199;28;20032;-72
2022/10/14 02:37:35;;;;;;;0.00;0.00;;;;;;;;;;5110765;27;20031;-72
2022/10/14 02:40:08;;;;;;;0.00;0.00;;;;;;;;;;5089535;28;20030;-72
2022/10/14 02:42:35;;;;;;;0.00;0.00;;;;;;;;;;5105905;27;20035;-71
2022/10/14 02:45:01;;;;;;;0.00;0.00;;;;;;;;;;5107015;27;20059;-73
2022/10/14 02:47:27;;;;;;;0.00;0.00;;;;;;;;;;5100360;28;20496;-72
2022/10/14 02:49:54;;;;;;;0.00;0.00;;;;;;;;;;5106689;27;20032;-72
2022/10/14 02:52:20;;;;;;;0.00;0.00;;;;;;;;;;5106854;28;20103;-73
2022/10/14 02:54:47;;;;;;;0.00;0.00;;;;;;;;;;5103723;28;20032;-72
2022/10/14 02:57:13;;;;;;;0.47;0.47;;;;;;;;;;5088156;28;20024;-72
2022/10/14 02:59:39;;;;;;;0.95;0.95;;;;;;;;;;5106049;28;20430;-71
2022/10/14 03:02:06;;;;;;;0.90;0.90;;;;;;;;;;5083882;28;20028;-72
2022/10/14 03:04:33;;;;;;;0.00;0.00;;;;;;;;;;5096531;27;20383;-72
2022/10/14 03:06:59;;;;;;;0.00;0.00;;;;;;;;;;5097984;28;20032;-71
2022/10/14 03:09:26;;;;;;;0.00;0.00;;;;;;;;;;5079260;28;20032;-73
2022/10/14 03:11:52;;;;;;;0.00;0.00;;;;;;;;;;5088179;28;20380;-72
2022/10/14 03:14:18;;;;;;;0.00;0.00;;;;;;;;;;5101732;27;20119;-71
2022/10/14 03:16:44;;;;;;;0.00;0.00;;;;;;;;;;5109691;28;20114;-71
2022/10/14 03:19:11;;;;;;;0.00;0.00;;;;;;;;;;5110823;27;20054;-70
2022/10/14 03:21:37;;;;;;;0.75;0.75;;;;;;;;;;5080219;28;20076;-72
2022/10/14 03:24:04;;;;;;;0.00;0.00;;;;;;;;;;5098587;28;20027;-71
2022/10/14 03:26:31;;;;;;;0.30;0.30;;;;;;;;;;5100696;27;20031;-75
2022/10/14 03:28:57;;;;;;;0.10;0.10;;;;;;;;;;5103901;28;20028;-72
2022/10/14 03:31:23;;;;;;;0.32;0.32;;;;;;;;;;5090133;28;20020;-73
2022/10/14 03:33:50;;;;;;;1.80;1.55;;;;;;;;;;5080512;28;20039;-74
2022/10/14 03:36:16;;;;;;;1.38;1.35;;;;;;;;;;5081423;28;20375;-73
2022/10/14 03:38:42;;;;;;;3.42;1.65;;;;;;;;;;5084872;28;20027;-74
2022/10/14 03:41:09;;;;;;;2.17;2.08;;;;;;;;;;5101941;27;20110;-73
2022/10/14 03:43:35;;;;;;;0.28;0.28;;;;;;;;;;5100935;27;20149;-72
2022/10/14 03:46:02;;;;;;;1.75;1.60;;;;;;;;;;5105055;27;20073;-73
2022/10/14 03:48:28;;;;;;;0.35;0.35;;;;;;;;;;5087528;28;20089;-74
2022/10/14 03:50:54;;;;;;;7.20;3.25;;;;;;;;;;5103268;28;20020;-74
2022/10/14 03:53:21;;;;;;;1.92;1.52;;;;;;;;;;5108319;27;20362;-75
2022/10/14 03:55:47;;;;;;;0.00;0.00;;;;;;;;;;5103448;28;20028;-73
2022/10/14 03:58:13;;;;;;;5.88;4.03;;;;;;;;;;5103454;28;20023;-73
2022/10/14 04:00:40;;;;;;;1.50;1.40;;;;;;;;;;5103770;28;20020;-74
2022/10/14 04:03:06;;;;;;;5.65;1.23;;;;;;;;;;5098654;28;20028;-74
2022/10/14 04:05:33;;;;;;;0.68;0.68;;;;;;;;;;5105049;27;20481;-75
2022/10/14 04:08:00;;;;;;;2.22;1.73;;;;;;;;;;5102005;27;20050;-76
2022/10/14 04:10:27;;;;;;;2.97;2.63;;;;;;;;;;5101711;28;20030;-75
2022/10/14 04:12:54;;;;;;;0.25;0.25;;;;;;;;;;5104698;27;20051;-75
2022/10/14 04:15:21;;;;;;;0.73;0.73;;;;;;;;;;5097518;27;20024;-78
2022/10/14 04:17:48;;;;;;;0.80;0.65;;;;;;;;;;5098817;27;20031;-74
2022/10/14 04:20:15;;;;;;;4.18;2.50;;;;;;;;;;5084883;27;20025;-73
2022/10/14 04:22:41;;;;;;;0.57;0.57;;;;;;;;;;5105538;27;20039;-73
2022/10/14 04:25:08;;;;;;;1.48;0.98;;;;;;;;;;5103208;27;20024;-75
2022/10/14 04:27:34;;;;;;;0.10;0.10;;;;;;;;;;5086534;28;20394;-73
2022/10/14 04:30:01;;;;;;;2.58;1.15;;;;;;;;;;5098948;27;20031;-73
2022/10/14 04:32:27;;;;;;;0.00;0.00;;;;;;;;;;5109555;27;20031;-74
2022/10/14 04:34:53;;;;;;;1.98;1.35;;;;;;;;;;5098027;28;20024;-73
2022/10/14 04:37:20;;;;;;;1.10;0.52;;;;;;;;;;5113829;27;20031;-72
2022/10/14 04:39:46;;;;;;;0.45;0.30;;;;;;;;;;5116988;28;20031;-72
2022/10/14 04:42:13;;;;;;;0.80;0.73;;;;;;;;;;5106133;27;20042;-73
2022/10/14 04:44:39;;;;;;;0.00;0.00;;;;;;;;;;5096089;28;20386;-74
2022/10/14 04:47:06;;;;;;;5.32;5.03;;;;;;;;;;5101055;27;20106;-74
2022/10/14 04:49:32;;;;;;;1.08;0.52;;;;;;;;;;5100175;27;20031;-75
2022/10/14 04:51:59;;;;;;;0.00;0.00;;;;;;;;;;5101609;28;20022;-73
2022/10/14 04:54:25;;;;;;;0.05;0.05;;;;;;;;;;5101291;28;20371;-72
2022/10/14 04:56:52;;;;;;;0.00;0.00;;;;;;;;;;5100288;27;20036;-72
2022/10/14 04:59:18;;;;;;;0.10;0.10;;;;;;;;;;5096591;28;20020;-73
2022/10/14 05:01:44;;;;;;;0.15;0.15;;;;;;;;;;5099476;27;20020;-73
2022/10/14 05:04:11;;;;;;;2.53;1.65;;;;;;;;;;5102587;27;20346;-72
2022/10/14 05:06:37;;;;;;;1.17;1.08;;;;;;;;;;5074669;28;20051;-71
2022/10/14 05:09:04;;;;;;;0.00;0.00;;;;;;;;;;5099750;27;20027;-71
2022/10/14 05:11:30;;;;;;;0.45;0.40;;;;;;;;;;5083335;28;20360;-72
2022/10/14 05:13:57;;;;;;;5.85;1.55;;;;;;;;;;5097103;27;20051;-73
2022/10/14 05:16:23;;;;;;;0.45;0.45;;;;;;;;;;5079401;28;20028;-73
2022/10/14 05:18:49;;;;;;;0.10;0.10;;;;;;;;;;5096504;28;20038;-72
2022/10/14 05:21:16;;;;;;;0.50;0.47;;;;;;;;;;5101601;28;20043;-72
2022/10/14 05:23:42;;;;;;;0.05;0.05;;;;;;;;;;5080821;28;20031;-76
2022/10/14 05:26:09;;;;;;;0.20;0.20;;;;;;;;;;5095815;27;20024;-73
2022/10/14 05:28:39;;;;;;;0.88;0.63;;;;;;;;;;5097937;28;20023;-71
2022/10/14 05:31:06;;;;;;;0.00;0.00;;;;;;;;;;5096847;27;20106;-72
2022/10/14 05:33:32;;;;;;;0.20;0.20;;;;;;;;;;5101881;28;20024;-73
2022/10/14 05:35:58;;;;;;;3.70;2.03;;;;;;;;;;5096189;28;20028;-72
2022/10/14 05:38:25;;;;;;;0.00;0.00;;;;;;;;;;5086739;28;20543;-73
2022/10/14 05:40:55;;;;;;;0.00;0.00;;;;;;;;;;5097828;28;20024;-75
2022/10/14 05:43:23;;;;;;;0.38;0.38;;;;;;;;;;5101327;27;20399;-76
2022/10/14 05:45:50;;;;;;;0.00;0.00;;;;;;;;;;5106056;28;20020;-73
2022/10/14 05:48:16;;;;;;;0.30;0.30;;;;;;;;;;5102743;28;20549;-72
2022/10/14 05:50:43;;;;;;;13.95;2.22;;;;;;;;;;5099097;28;20039;-72
2022/10/14 05:53:10;;;;;;;1.63;1.17;;;;;;;;;;5098492;28;20031;-73
2022/10/14 05:55:36;;;;;;;0.00;0.00;;;;;;;;;;5102001;28;20394;-73
2022/10/14 05:58:03;;;;;;;0.85;0.47;;;;;;;;;;5106831;28;20023;-73
2022/10/14 06:00:29;;;;;;;2.30;2.00;;;;;;;;;;5108346;28;20027;-72
2022/10/14 06:02:59;;;;;;;0.10;0.10;;;;;;;;;;5102533;28;20017;-71
2022/10/14 06:05:25;;;;;;;1.35;0.90;;;;;;;;;;5101506;28;20079;-73
2022/10/14 06:07:51;;;;;;;5.10;4.85;;;;;;;;;;5083206;28;20473;-72
2022/10/14 06:10:18;;;;;;;2.17;1.55;;;;;;;;;;5101368;28;20107;-73
2022/10/14 06:12:44;;;;;;;1.75;1.65;;;;;;;;;;5075442;28;20020;-73
2022/10/14 06:15:10;;;;;;;0.00;0.00;;;;;;;;;;5104044;28;20103;-74
2022/10/14 06:17:37;;;;;;;0.10;0.10;;;;;;;;;;5102768;28;20042;-72
2022/10/14 06:20:03;;;;;;;0.00;0.00;;;;;;;;;;5101267;28;20131;-73
2022/10/14 06:22:29;;;;;;;0.00;0.00;;;;;;;;;;5099601;28;21538;-72
2022/10/14 06:24:56;;;;;;;6.32;1.33;;;;;;;;;;5097093;28;20343;-71
2022/10/14 06:27:22;;;;;;;4.72;1.90;;;;;;;;;;5099704;28;20035;-73
2022/10/14 06:29:48;;;;;;;0.85;0.82;;;;;;;;;;5095243;28;20020;-72
2022/10/14 06:32:15;;;;;;;0.00;0.00;;;;;;;;;;5084895;28;20126;-73
2022/10/14 06:34:41;;;;;;;0.55;0.52;;;;;;;;;;5101356;28;20027;-74
2022/10/14 06:37:07;;;;;;;1.42;1.33;;;;;;;;;;5096346;28;20028;-73
2022/10/14 06:39:34;;;;;;;0.03;0.03;;;;;;;;;;5104732;28;20958;-72
2022/10/14 06:42:02;;;;;;;3.00;2.75;;;;;;;;;;5078143;28;20127;-72
2022/10/14 06:44:28;;;;;;;1.00;0.80;;;;;;;;;;5101517;28;20032;-72
2022/10/14 06:46:54;;;;;;;1.95;1.85;;;;;;;;;;5080527;28;20382;-72
2022/10/14 06:49:21;;;;;;;1.98;1.17;;;;;;;;;;5085359;28;20030;-73
2022/10/14 06:51:47;;;;;;;0.30;0.30;;;;;;;;;;5086128;28;20039;-73
2022/10/14 06:54:13;;;;;;;0.47;0.38;;;;;;;;;;5089400;28;20031;-73
2022/10/14 06:56:40;;;;;;;0.75;0.68;;;;;;;;;;5107280;27;20042;-73
2022/10/14 06:59:06;;;;;;;3.22;2.95;;;;;;;;;;5097893;28;20596;-72
2022/10/14 07:01:32;;;;;;;2.83;0.90;;;;;;;;;;5099383;28;20032;-72
2022/10/14 07:03:59;;;;;;;0.00;0.00;;;;;;;;;;5101931;28;20087;-73
2022/10/14 07:06:26;;;;;;;0.00;0.00;;;;;;;;;;5103313;27;20032;-73
2022/10/14 07:08:52;;;;;;;3.22;2.47;;;;;;;;;;5084744;28;20042;-74
2022/10/14 07:11:19;;;;;;;0.82;0.82;;;;;;;;;;5092043;28;20084;-75
2022/10/14 07:13:45;;;;;;;0.90;0.65;;;;;;;;;;5100718;27;20119;-74
2022/10/14 07:16:11;;;;;;;0.55;0.45;;;;;;;;;;5100857;28;20035;-74
2022/10/14 07:18:38;;;;;;;1.65;0.90;;;;;;;;;;5085663;28;20649;-73
2022/10/14 07:21:04;;;;;;;4.60;4.28;;;;;;;;;;5086856;28;20023;-74
2022/10/14 07:23:31;;;;;;;0.10;0.10;;;;;;;;;;5098716;27;20495;-74
2022/10/14 07:25:58;;;;;;;1.45;1.35;;;;;;;;;;5106573;27;20110;-78
2022/10/14 07:28:24;;;;;;;2.40;2.20;;;;;;;;;;5103730;27;20606;-76
2022/10/14 07:31:20;;;;;;;0.00;0.00;;;;;;;;;;5101392;27;20466;-74
2022/10/14 07:33:46;;;;;;;1.95;1.85;;;;;;;;;;5083614;28;20043;-79
2022/10/14 07:36:14;;;;;;;1.85;1.08;;;;;;;;;;5083496;28;20024;-78
2022/10/14 07:38:40;;;;;;;0.00;0.00;;;;;;;;;;5109240;28;20023;-79
2022/10/14 07:41:15;;;;;;;0.00;0.00;;;;;;;;;;5084132;28;20308;-78
2022/10/14 07:43:45;;;;;;;4.55;1.65;;;;;;;;;;5106041;28;20027;-77
2022/10/14 07:46:12;;;;;;;0.00;0.00;;;;;;;;;;5101554;28;20075;-75
2022/10/14 07:48:39;;;;;;;9.27;2.88;;;;;;;;;;5103300;28;20031;-77
2022/10/14 07:51:06;;;;;;;3.83;1.30;;;;;;;;;;5089674;28;20027;-78
2022/10/14 07:53:36;;;;;;;0.00;0.00;;;;;;;;;;5076725;28;20028;-75
2022/10/14 07:56:03;;;;;;;0.00;0.00;;;;;;;;;;5087299;28;20026;-73
2022/10/14 07:58:30;;;;;;;0.28;0.28;;;;;;;;;;5101441;28;20045;-77
2022/10/14 08:00:57;;;;;;;0.30;0.10;;;;;;;;;;5083403;28;20026;-75
2022/10/14 08:03:24;;;;;;;2.40;2.22;;;;;;;;;;5087941;28;20106;-73
2022/10/14 08:05:50;;;;;;;2.42;2.17;;;;;;;;;;5103180;28;20031;-75
2022/10/14 08:08:23;;;;;;;1.17;1.08;;;;;;;;;;5106915;28;20020;-74
2022/10/14 08:10:49;;;;;;;0.03;0.03;;;;;;;;;;5079505;28;20046;-76
2022/10/14 08:13:18;;;;;;;0.63;0.63;;;;;;;;;;5101158;28;20051;-75
2022/10/14 08:15:45;;;;;;;0.00;0.00;;;;;;;;;;5101441;28;20028;-76
2022/10/14 08:18:11;;;;;;;0.08;0.08;;;;;;;;;;5102358;28;20050;-76
2022/10/14 08:20:40;;;;;;;0.00;0.00;;;;;;;;;;5098281;28;20042;-75
2022/10/14 08:23:07;;;;;;;0.00;0.00;;;;;;;;;;5080294;28;20031;-74
2022/10/14 08:25:36;;;;;;;0.05;0.05;;;;;;;;;;5080217;28;20038;-74
2022/10/14 08:28:09;;;;;;;0.00;0.00;;;;;;;;;;5084574;28;20424;-75
2022/10/14 08:30:36;;;;;;;3.40;1.02;;;;;;;;;;5082597;28;20123;-76
2022/10/14 08:33:02;;;;;;;0.75;0.63;;;;;;;;;;5100608;28;20024;-74
2022/10/14 08:35:28;;;;;;;8.48;1.98;;;;;;;;;;5102076;28;20090;-74
2022/10/14 08:37:56;;;;;;;0.47;0.20;;;;;;;;;;5100393;28;20024;-73
2022/10/14 08:40:22;;;;;;;0.00;0.00;;;;;;;;;;5076387;28;20023;-73
2022/10/14 08:42:48;;;;;;;6.28;2.25;;;;;;;;;;5081638;28;20516;-73
2022/10/14 08:45:18;;;;;;;1.08;1.08;;;;;;;;;;5097118;28;20035;-75
2022/10/14 08:47:46;;;;;;;1.13;0.85;;;;;;;;;;5098650;28;20024;-77
2022/10/14 08:50:28;;;;;;;2.22;1.52;;;;;;;;;;5107545;28;20032;-73
2022/10/14 08:52:57;;;;;;;0.00;0.00;;;;;;;;;;5084456;28;20603;-78
2022/10/14 08:55:38;;;;;;;6.32;3.28;;;;;;;;;;5088061;28;20085;-76
2022/10/14 08:58:27;;;;;;;0.20;0.20;;;;;;;;;;5079942;28;20035;-76
2022/10/14 09:00:54;;;;;;;0.00;0.00;;;;;;;;;;5103848;28;20026;-76
2022/10/14 09:03:22;;;;;;;1.23;1.23;;;;;;;;;;5103694;28;20024;-75
2022/10/14 09:06:00;;;;;;;0.00;0.00;;;;;;;;;;5113948;27;20028;-78
2022/10/14 09:08:45;;;;;;;0.47;0.32;;;;;;;;;;5084861;28;20389;-77
2022/10/14 09:11:14;;;;;;;0.55;0.55;;;;;;;;;;5110374;27;20085;-77
2022/10/14 09:13:42;;;;;;;0.47;0.47;;;;;;;;;;5108005;28;20137;-75
2022/10/14 09:16:12;;;;;;;0.00;0.00;;;;;;;;;;5087523;28;20028;-77
2022/10/14 09:18:44;;;;;;;0.00;0.00;;;;;;;;;;5109848;27;20020;-77
2022/10/14 09:21:29;;;;;;;0.30;0.30;;;;;;;;;;5100044;28;20350;-75
2022/10/14 09:24:01;;;;;;;0.10;0.10;;;;;;;;;;5096419;28;20020;-74
2022/10/14 09:26:32;;;;;;;2.20;0.43;;;;;;;;;;5098624;27;20032;-74
2022/10/14 09:28:59;;;;;;;0.95;0.60;;;;;;;;;;5102735;28;20048;-75
2022/10/14 09:31:25;;;;;;;0.00;0.00;;;;;;;;;;5099458;28;20047;-73
2022/10/14 09:33:51;;;;;;;0.00;0.00;;;;;;;;;;5084037;28;20034;-74
2022/10/14 09:36:20;;;;;;;0.60;0.52;;;;;;;;;;5105609;28;20028;-73
2022/10/14 09:38:50;;;;;;;0.55;0.55;;;;;;;;;;5102070;28;20507;-74
2022/10/14 09:41:17;;;;;;;0.00;0.00;;;;;;;;;;5086152;28;20082;-74
2022/10/14 09:44:02;;;;;;;0.00;0.00;;;;;;;;;;5099662;28;20028;-73
2022/10/14 09:46:28;;;;;;;0.00;0.00;;;;;;;;;;5106960;28;20024;-79
2022/10/14 09:48:55;;;;;;;0.00;0.00;;;;;;;;;;5107948;28;20103;-73
2022/10/14 09:51:23;;;;;;;0.20;0.20;;;;;;;;;;5080224;28;20024;-79
2022/10/14 09:53:54;;;;;;;0.03;0.03;;;;;;;;;;5083152;28;20026;-75
2022/10/14 09:56:28;;;;;;;0.65;0.65;;;;;;;;;;5101515;28;20066;-78
2022/10/14 09:58:56;;;;;;;0.00;0.00;;;;;;;;;;5104598;28;20036;-77
2022/10/14 10:01:27;;;;;;;0.00;0.00;;;;;;;;;;5092995;28;20351;-75
2022/10/14 10:03:54;;;;;;;5.72;2.45;;;;;;;;;;5101008;28;20483;-78
2022/10/14 10:06:25;;;;;;;0.50;0.45;;;;;;;;;;5083741;27;20496;-76
2022/10/14 10:08:54;;;;;;;16.73;9.02;;;;;;;;;;5096888;28;20027;-74
2022/10/14 10:11:27;;;;;;;0.00;0.00;;;;;;;;;;5102132;28;20028;-75
2022/10/14 10:13:53;;;;;;;0.35;0.35;;;;;;;;;;5079096;28;20020;-76
2022/10/14 10:16:30;;;;;;;0.30;0.30;;;;;;;;;;5094395;27;20102;-73
2022/10/14 10:19:00;;;;;;;0.00;0.00;;;;;;;;;;5113940;27;20020;-74
2022/10/14 10:21:30;;;;;;;0.00;0.00;;;;;;;;;;5112233;27;20073;-74
2022/10/14 10:23:57;;;;;;;3.30;1.45;;;;;;;;;;5101506;28;20103;-75
2022/10/14 10:26:26;;;;;;;0.60;0.60;;;;;;;;;;5083728;28;20032;-76
2022/10/14 10:28:53;;;;;;;4.88;3.03;;;;;;;;;;5083089;28;20023;-76
2022/10/14 10:31:31;;;;;;;0.00;0.00;;;;;;;;;;5108875;27;20027;-77
2022/10/14 10:34:04;;;;;;;0.32;0.32;;;;;;;;;;5083066;28;20016;-77
2022/10/14 10:36:40;;;;;;;0.38;0.38;;;;;;;;;;5104288;28;20047;-73
2022/10/14 10:39:09;;;;;;;0.00;0.00;;;;;;;;;;5103585;28;20015;-75
2022/10/14 10:41:42;;;;;;;0.05;0.05;;;;;;;;;;5101227;28;20044;-74
2022/10/14 10:44:11;;;;;;;0.00;0.00;;;;;;;;;;5085416;27;20099;-75
2022/10/14 10:46:59;;;;;;;0.00;0.00;;;;;;;;;;5108059;28;20103;-77
2022/10/14 10:49:44;;;;;;;0.13;0.13;;;;;;;;;;5101807;28;20035;-74
2022/10/14 10:52:21;;;;;;;1.67;1.55;;;;;;;;;;5099973;27;20050;-74
2022/10/14 10:54:55;;;;;;;0.00;0.00;;;;;;;;;;5105619;27;20114;-74
2022/10/14 10:57:29;;;;;;;0.60;0.60;;;;;;;;;;5099588;27;20110;-75
2022/10/14 11:00:01;;;;;;;1.40;1.30;;;;;;;;;;5101398;27;20019;-75
2022/10/14 11:02:32;;;;;;;0.00;0.00;;;;;;;;;;5085856;28;20420;-75
2022/10/14 11:05:10;;;;;;;0.55;0.55;;;;;;;;;;5100221;28;20024;-74
2022/10/14 11:13:44;;;;;;;0.00;0.00;;;;;;;;;;5102038;27;20023;-75
2022/10/14 11:16:26;;;;;;;0.00;0.00;;;;;;;;;;5083642;28;20125;-76
2022/10/14 11:19:02;;;;;;;0.00;0.00;;;;;;;;;;5090675;28;20024;-73
2022/10/14 11:21:35;;;;;;;0.00;0.00;;;;;;;;;;5091847;28;20024;-73
2022/10/14 11:24:01;;;;;;;0.10;0.10;;;;;;;;;;5104954;27;20031;-74
2022/10/14 11:26:27;;;;;;;0.00;0.00;;;;;;;;;;5104497;27;20024;-73
2022/10/14 11:29:00;;;;;;;0.00;0.00;;;;;;;;;;5106981;28;20524;-74
2022/10/14 11:31:27;;;;;;;0.00;0.00;;;;;;;;;;5106559;27;20453;-74
2022/10/14 11:34:06;;;;;;;0.45;0.45;;;;;;;;;;5086599;27;20047;-72
2022/10/14 11:36:35;;;;;;;0.00;0.00;;;;;;;;;;5101452;28;20526;-73
2022/10/14 11:39:11;;;;;;;0.00;0.00;;;;;;;;;;5101551;27;20020;-72
2022/10/14 11:42:00;;;;;;;0.00;0.00;;;;;;;;;;5103723;28;20130;-71
2022/10/14 11:44:36;;;;;;;0.00;0.00;;;;;;;;;;5118855;27;20020;-71
2022/10/14 11:47:21;;;;;;;6.15;5.95;;;;;;;;;;5097215;28;20032;-72
2022/10/14 11:49:52;;;;;;;0.00;0.00;;;;;;;;;;5120692;27;20038;-73
2022/10/14 11:52:40;;;;;;;0.00;0.00;;;;;;;;;;5106816;28;20109;-74
2022/10/14 11:55:10;;;;;;;0.52;0.52;;;;;;;;;;5101509;27;20107;-75
2022/10/14 11:57:37;;;;;;;0.00;0.00;;;;;;;;;;5107250;27;20027;-74
2022/10/14 12:00:12;;;;;;;1.80;1.75;;;;;;;;;;5103329;28;20028;-75
2022/10/14 12:02:48;;;;;;;0.00;0.00;;;;;;;;;;5106638;27;20059;-73
2022/10/14 12:05:27;;;;;;;0.00;0.00;;;;;;;;;;5089740;28;20026;-75
2022/10/14 12:07:53;;;;;;;0.00;0.00;;;;;;;;;;5072662;28;20060;-75
2022/10/14 12:10:26;;;;;;;0.00;0.00;;;;;;;;;;5100991;28;20094;-80
2022/10/14 12:12:52;;;;;;;0.00;0.00;;;;;;;;;;5102891;27;20171;-80
2022/10/14 12:15:20;;;;;;;0.00;0.00;;;;;;;;;;5079919;28;20498;-76
2022/10/14 12:18:01;;;;;;;0.00;0.00;;;;;;;;;;5088012;28;20479;-74
2022/10/14 12:20:49;;;;;;;0.10;0.10;;;;;;;;;;5085237;28;20036;-75
2022/10/14 12:23:30;;;;;;;0.65;0.65;;;;;;;;;;5086739;28;20097;-75
2022/10/14 12:26:02;;;;;;;0.00;0.00;;;;;;;;;;5087067;28;20042;-76
2022/10/14 12:28:28;;;;;;;0.00;0.00;;;;;;;;;;5091843;28;20028;-74
2022/10/14 12:31:15;;;;;;;0.00;0.00;;;;;;;;;;5105707;28;20016;-76
2022/10/14 12:34:08;;;;;;;0.00;0.00;;;;;;;;;;5093478;27;20032;-76
2022/10/14 12:36:34;;;;;;;0.00;0.00;;;;;;;;;;5095786;28;20397;-74
2022/10/14 12:39:18;;;;;;;0.00;0.00;;;;;;;;;;5104542;27;20031;-75
2022/10/14 12:41:48;;;;;;;0.00;0.00;;;;;;;;;;5083967;28;20453;-76
2022/10/14 12:44:17;;;;;;;0.00;0.00;;;;;;;;;;5102787;28;20020;-73
2022/10/14 12:46:44;;;;;;;0.20;0.20;;;;;;;;;;5079325;28;20364;-76
2022/10/14 12:49:29;;;;;;;0.00;0.00;;;;;;;;;;5100467;28;20626;-75
2022/10/14 12:51:57;;;;;;;0.00;0.00;;;;;;;;;;5106430;27;20027;-74
2022/10/14 12:54:24;;;;;;;0.00;0.00;;;;;;;;;;5099682;28;20027;-75
2022/10/14 12:57:14;;;;;;;0.90;0.90;;;;;;;;;;5099836;28;20164;-74
2022/10/14 12:59:41;;;;;;;0.15;0.15;;;;;;;;;;5081228;28;20034;-74
2022/10/14 13:02:26;;;;;;;0.00;0.00;;;;;;;;;;5100456;28;20039;-74
2022/10/14 13:04:54;;;;;;;0.00;0.00;;;;;;;;;;5085276;28;20043;-73
2022/10/14 13:07:28;;;;;;;0.00;0.00;;;;;;;;;;5108971;28;20024;-73
2022/10/14 13:09:59;;;;;;;0.00;0.00;;;;;;;;;;5100276;27;20418;-74
2022/10/14 13:12:25;;;;;;;0.00;0.00;;;;;;;;;;5085635;28;20465;-73
2022/10/14 13:14:54;;;;;;;0.00;0.00;;;;;;;;;;5102809;28;20062;-72
2022/10/14 13:17:28;;;;;;;0.00;0.00;;;;;;;;;;5085833;28;20032;-72
2022/10/14 13:19:55;;;;;;;2.05;1.98;;;;;;;;;;5087062;28;20012;-73
2022/10/14 13:22:27;;;;;;;0.00;0.00;;;;;;;;;;5102671;28;20039;-73
2022/10/14 13:25:06;;;;;;;1.48;1.48;;;;;;;;;;5113141;28;20040;-74
2022/10/14 13:27:59;;;;;;;0.00;0.00;;;;;;;;;;5084311;28;20032;-73
2022/10/14 13:30:58;;;;;;;0.00;0.00;;;;;;;;;;5098885;28;20039;-76
2022/10/14 13:33:34;;;;;;;0.00;0.00;;;;;;;;;;5044314;27;20119;-75
2022/10/14 13:36:19;;;;;;;0.00;0.00;;;;;;;;;;5102138;28;20373;-74
2022/10/14 13:38:47;;;;;;;0.00;0.00;;;;;;;;;;5094019;28;20031;-73
2022/10/14 13:41:23;;;;;;;1.30;1.30;;;;;;;;;;5085054;27;20023;-74
2022/10/14 13:43:51;;;;;;;0.00;0.00;;;;;;;;;;5110503;27;20024;-74
2022/10/14 13:46:22;;;;;;;0.00;0.00;;;;;;;;;;5092142;28;20023;-74
2022/10/14 13:48:50;;;;;;;0.00;0.00;;;;;;;;;;5102690;28;20039;-74
2022/10/14 13:51:16;;;;;;;0.30;0.30;;;;;;;;;;5101037;28;20667;-74
2022/10/14 13:53:50;;;;;;;16.75;15.20;;;;;;;;;;5102156;28;20103;-74
2022/10/14 13:56:22;;;;;;;0.30;0.30;;;;;;;;;;5094622;28;20032;-74
2022/10/14 13:58:48;;;;;;;0.20;0.20;;;;;;;;;;5097456;28;20136;-74
2022/10/14 14:01:15;;;;;;;2.08;2.05;;;;;;;;;;5099484;28;20107;-74
2022/10/14 14:03:43;;;;;;;0.00;0.00;;;;;;;;;;5088016;28;20027;-74
2022/10/14 14:06:13;;;;;;;0.43;0.43;;;;;;;;;;5099718;28;20046;-74
2022/10/14 14:08:46;;;;;;;0.00;0.00;;;;;;;;;;5112661;28;20389;-74
2022/10/14 14:11:20;;;;;;;0.00;0.00;;;;;;;;;;5109832;28;20016;-75
2022/10/14 14:13:48;;;;;;;12.50;9.50;;;;;;;;;;5094728;28;20071;-73
2022/10/14 14:16:22;;;;;;;0.00;0.00;;;;;;;;;;5112917;28;20024;-74
2022/10/14 14:18:51;;;;;;;0.00;0.00;;;;;;;;;;5092010;28;20118;-74
2022/10/14 14:21:20;;;;;;;0.00;0.00;;;;;;;;;;5076657;28;20016;-74
2022/10/14 14:23:50;;;;;;;0.00;0.00;;;;;;;;;;5078065;28;20020;-74
2022/10/14 14:26:16;;;;;;;0.00;0.00;;;;;;;;;;5093303;28;20020;-75
2022/10/14 14:28:44;;;;;;;0.63;0.63;;;;;;;;;;5074320;28;20501;-72
2022/10/14 14:31:14;;;;;;;0.00;0.00;;;;;;;;;;5083502;28;20042;-74
2022/10/14 14:33:41;;;;;;;0.00;0.00;;;;;;;;;;5116341;28;20038;-74
2022/10/14 14:36:12;;;;;;;0.00;0.00;;;;;;;;;;5094414;28;20028;-73
2022/10/14 14:38:45;;;;;;;0.38;0.38;;;;;;;;;;5107979;28;20031;-73
2022/10/14 14:41:22;;;;;;;0.00;0.00;;;;;;;;;;5112610;28;20024;-73
2022/10/14 14:43:50;;;;;;;2.80;0.52;;;;;;;;;;5094077;28;20508;-72
2022/10/14 14:46:21;;;;;;;0.00;0.00;;;;;;;;;;5089557;28;20024;-73
2022/10/14 14:48:53;;;;;;;0.47;0.47;;;;;;;;;;5090395;28;20028;-73
2022/10/14 14:51:20;;;;;;;0.22;0.22;;;;;;;;;;5089118;28;20027;-74
2022/10/14 14:53:49;;;;;;;0.00;0.00;;;;;;;;;;5093491;28;20028;-74
2022/10/14 14:56:18;;;;;;;0.90;0.65;;;;;;;;;;5111868;28;20047;-75
2022/10/14 14:58:48;;;;;;;0.00;0.00;;;;;;;;;;5092789;28;20032;-72
2022/10/14 15:01:19;;;;;;;0.00;0.00;;;;;;;;;;5115845;28;20016;-74
2022/10/14 15:03:51;;;;;;;0.00;0.00;;;;;;;;;;5115348;28;20024;-73
2022/10/14 15:06:18;;;;;;;0.00;0.00;;;;;;;;;;5115704;28;20020;-73